sensor_id;sensor_type;location;lat;lon;timestamp;P1;durP1;ratioP1;P2;durP2;ratioP2
2259;SDS011;333;48.800;9.530;2023-02-28T00:00:13;3.67;;;3.37;;
2259;SDS011;333;48.800;9.530;2023-02-28T00:02:41;3.30;;;3.10;;
2259;SDS011;333;48.800;9.530;2023-02-28T00:05:09;3.57;;;2.90;;
2259;SDS011;333;48.800;9.530;2023-02-28T00:07:37;4.23;;;3.83;;
2259;SDS011;333;48.800;9.530;2023-02-28T00:10:05;3.10;;;2.70;;
2259;SDS011;333;48.800;9.530;2023-02-28T00:12:34;3.23;;;3.00;;
2259;SDS011;333;48.800;9.530;2023-02-28T00:15:03;3.80;;;3.27;;
2259;SDS011;333;48.800;9.530;2023-02-28T00:17:32;4.40;;;3.90;;
2259;SDS011;333;48.800;9.530;2023-02-28T00:19:59;3.67;;;3.00;;
2259;SDS011;333;48.800;9.530;2023-02-28T00:22:37;3.30;;;3.00;;
2259;SDS011;333;48.800;9.530;2023-02-28T00:25:06;3.83;;;3.17;;
2259;SDS011;333;48.800;9.530;2023-02-28T00:27:36;4.57;;;3.40;;
2259;SDS011;333;48.800;9.530;2023-02-28T00:30:04;5.10;;;3.03;;
2259;SDS011;333;48.800;9.530;2023-02-28T00:32:32;4.00;;;3.30;;
2259;SDS011;333;48.800;9.530;2023-02-28T00:35:02;4.57;;;3.20;;
2259;SDS011;333;48.800;9.530;2023-02-28T00:37:29;5.03;;;4.03;;
2259;SDS011;333;48.800;9.530;2023-02-28T00:39:57;5.10;;;3.67;;
2259;SDS011;333;48.800;9.530;2023-02-28T00:42:25;4.33;;;3.93;;
2259;SDS011;333;48.800;9.530;2023-02-28T00:44:54;3.63;;;3.00;;
2259;SDS011;333;48.800;9.530;2023-02-28T00:47:21;4.37;;;3.30;;
2259;SDS011;333;48.800;9.530;2023-02-28T00:49:49;4.83;;;3.67;;
2259;SDS011;333;48.800;9.530;2023-02-28T00:52:17;4.73;;;3.60;;
2259;SDS011;333;48.800;9.530;2023-02-28T00:54:44;6.03;;;3.50;;
2259;SDS011;333;48.800;9.530;2023-02-28T00:57:11;4.77;;;3.00;;
2259;SDS011;333;48.800;9.530;2023-02-28T00:59:39;4.70;;;3.27;;
2259;SDS011;333;48.800;9.530;2023-02-28T01:02:08;3.03;;;2.80;;
2259;SDS011;333;48.800;9.530;2023-02-28T01:04:35;3.47;;;3.17;;
2259;SDS011;333;48.800;9.530;2023-02-28T01:07:02;4.50;;;3.90;;
2259;SDS011;333;48.800;9.530;2023-02-28T01:09:30;5.83;;;4.70;;
2259;SDS011;333;48.800;9.530;2023-02-28T01:11:58;4.30;;;3.57;;
2259;SDS011;333;48.800;9.530;2023-02-28T01:14:25;6.63;;;3.90;;
2259;SDS011;333;48.800;9.530;2023-02-28T01:16:53;5.10;;;4.20;;
2259;SDS011;333;48.800;9.530;2023-02-28T01:19:24;4.20;;;3.63;;
2259;SDS011;333;48.800;9.530;2023-02-28T01:21:51;6.33;;;3.70;;
2259;SDS011;333;48.800;9.530;2023-02-28T01:24:19;4.00;;;3.60;;
2259;SDS011;333;48.800;9.530;2023-02-28T01:26:46;3.23;;;2.90;;
2259;SDS011;333;48.800;9.530;2023-02-28T01:29:14;5.40;;;3.90;;
2259;SDS011;333;48.800;9.530;2023-02-28T01:31:42;6.10;;;3.40;;
2259;SDS011;333;48.800;9.530;2023-02-28T01:34:09;3.77;;;3.40;;
2259;SDS011;333;48.800;9.530;2023-02-28T01:36:38;5.07;;;3.57;;
2259;SDS011;333;48.800;9.530;2023-02-28T01:39:05;4.40;;;3.97;;
2259;SDS011;333;48.800;9.530;2023-02-28T01:41:33;5.03;;;4.20;;
2259;SDS011;333;48.800;9.530;2023-02-28T01:44:02;5.00;;;4.47;;
2259;SDS011;333;48.800;9.530;2023-02-28T01:46:30;6.63;;;5.00;;
2259;SDS011;333;48.800;9.530;2023-02-28T01:49:00;4.40;;;4.00;;
2259;SDS011;333;48.800;9.530;2023-02-28T01:51:30;3.97;;;3.67;;
2259;SDS011;333;48.800;9.530;2023-02-28T01:54:01;5.73;;;4.57;;
2259;SDS011;333;48.800;9.530;2023-02-28T01:56:30;4.93;;;4.13;;
2259;SDS011;333;48.800;9.530;2023-02-28T01:59:00;4.90;;;4.37;;
2259;SDS011;333;48.800;9.530;2023-02-28T02:01:27;6.27;;;4.40;;
2259;SDS011;333;48.800;9.530;2023-02-28T02:03:57;4.50;;;4.00;;
2259;SDS011;333;48.800;9.530;2023-02-28T02:06:27;4.83;;;4.30;;
2259;SDS011;333;48.800;9.530;2023-02-28T02:08:56;8.23;;;5.43;;
2259;SDS011;333;48.800;9.530;2023-02-28T02:11:29;4.90;;;4.50;;
2259;SDS011;333;48.800;9.530;2023-02-28T02:14:04;5.20;;;4.70;;
2259;SDS011;333;48.800;9.530;2023-02-28T02:16:34;4.63;;;4.23;;
2259;SDS011;333;48.800;9.530;2023-02-28T02:19:09;4.00;;;3.63;;
2259;SDS011;333;48.800;9.530;2023-02-28T02:21:56;4.63;;;4.23;;
2259;SDS011;333;48.800;9.530;2023-02-28T02:24:31;5.27;;;4.77;;
2259;SDS011;333;48.800;9.530;2023-02-28T02:27:17;6.43;;;4.43;;
2259;SDS011;333;48.800;9.530;2023-02-28T02:29:57;4.50;;;4.13;;
2259;SDS011;333;48.800;9.530;2023-02-28T02:35:19;5.50;;;4.83;;
2259;SDS011;333;48.800;9.530;2023-02-28T02:37:53;5.07;;;4.67;;
2259;SDS011;333;48.800;9.530;2023-02-28T02:40:27;4.93;;;4.43;;
2259;SDS011;333;48.800;9.530;2023-02-28T02:43:01;5.70;;;5.10;;
2259;SDS011;333;48.800;9.530;2023-02-28T02:45:31;4.50;;;4.10;;
2259;SDS011;333;48.800;9.530;2023-02-28T02:48:00;5.40;;;4.40;;
2259;SDS011;333;48.800;9.530;2023-02-28T02:50:31;6.33;;;4.40;;
2259;SDS011;333;48.800;9.530;2023-02-28T02:53:00;4.73;;;4.10;;
2259;SDS011;333;48.800;9.530;2023-02-28T02:55:29;4.93;;;4.43;;
2259;SDS011;333;48.800;9.530;2023-02-28T02:57:58;6.37;;;4.73;;
2259;SDS011;333;48.800;9.530;2023-02-28T03:00:34;5.80;;;5.30;;
2259;SDS011;333;48.800;9.530;2023-02-28T03:03:04;6.57;;;5.63;;
2259;SDS011;333;48.800;9.530;2023-02-28T03:05:34;5.10;;;4.70;;
2259;SDS011;333;48.800;9.530;2023-02-28T03:08:03;5.40;;;4.70;;
2259;SDS011;333;48.800;9.530;2023-02-28T03:10:33;5.60;;;4.50;;
2259;SDS011;333;48.800;9.530;2023-02-28T03:13:05;5.03;;;4.63;;
2259;SDS011;333;48.800;9.530;2023-02-28T03:15:36;5.60;;;5.10;;
2259;SDS011;333;48.800;9.530;2023-02-28T03:18:10;6.80;;;5.10;;
2259;SDS011;333;48.800;9.530;2023-02-28T03:20:45;5.00;;;4.50;;
2259;SDS011;333;48.800;9.530;2023-02-28T03:23:19;4.80;;;4.40;;
2259;SDS011;333;48.800;9.530;2023-02-28T03:25:53;5.07;;;4.50;;
2259;SDS011;333;48.800;9.530;2023-02-28T03:28:23;6.27;;;5.20;;
2259;SDS011;333;48.800;9.530;2023-02-28T03:30:56;5.73;;;4.90;;
2259;SDS011;333;48.800;9.530;2023-02-28T03:33:26;5.80;;;4.33;;
2259;SDS011;333;48.800;9.530;2023-02-28T03:35:57;5.40;;;4.90;;
2259;SDS011;333;48.800;9.530;2023-02-28T03:38:28;5.13;;;4.63;;
2259;SDS011;333;48.800;9.530;2023-02-28T03:40:57;6.37;;;5.30;;
2259;SDS011;333;48.800;9.530;2023-02-28T03:43:29;6.50;;;4.33;;
2259;SDS011;333;48.800;9.530;2023-02-28T03:45:58;5.23;;;4.73;;
2259;SDS011;333;48.800;9.530;2023-02-28T03:48:28;6.00;;;4.30;;
2259;SDS011;333;48.800;9.530;2023-02-28T03:50:59;6.47;;;4.90;;
2259;SDS011;333;48.800;9.530;2023-02-28T03:53:27;6.23;;;5.67;;
2259;SDS011;333;48.800;9.530;2023-02-28T03:55:57;7.47;;;5.17;;
2259;SDS011;333;48.800;9.530;2023-02-28T03:58:27;6.23;;;5.00;;
2259;SDS011;333;48.800;9.530;2023-02-28T04:00:58;5.40;;;4.90;;
2259;SDS011;333;48.800;9.530;2023-02-28T04:03:33;6.80;;;5.53;;
2259;SDS011;333;48.800;9.530;2023-02-28T04:06:02;7.87;;;6.00;;
2259;SDS011;333;48.800;9.530;2023-02-28T04:08:29;7.73;;;5.13;;
2259;SDS011;333;48.800;9.530;2023-02-28T04:10:58;6.37;;;5.40;;
2259;SDS011;333;48.800;9.530;2023-02-28T04:13:27;5.67;;;5.07;;
2259;SDS011;333;48.800;9.530;2023-02-28T04:15:54;5.57;;;4.83;;
2259;SDS011;333;48.800;9.530;2023-02-28T04:18:21;7.27;;;5.33;;
2259;SDS011;333;48.800;9.530;2023-02-28T04:20:49;8.50;;;5.47;;
2259;SDS011;333;48.800;9.530;2023-02-28T04:23:18;6.83;;;5.23;;
2259;SDS011;333;48.800;9.530;2023-02-28T04:25:45;6.40;;;5.00;;
2259;SDS011;333;48.800;9.530;2023-02-28T04:28:12;5.33;;;4.83;;
2259;SDS011;333;48.800;9.530;2023-02-28T04:30:40;6.70;;;6.00;;
2259;SDS011;333;48.800;9.530;2023-02-28T04:33:07;6.53;;;5.70;;
2259;SDS011;333;48.800;9.530;2023-02-28T04:35:34;6.97;;;5.40;;
2259;SDS011;333;48.800;9.530;2023-02-28T04:38:01;6.23;;;5.63;;
2259;SDS011;333;48.800;9.530;2023-02-28T04:40:30;6.20;;;5.50;;
2259;SDS011;333;48.800;9.530;2023-02-28T04:42:57;11.63;;;5.60;;
2259;SDS011;333;48.800;9.530;2023-02-28T04:45:25;7.97;;;6.57;;
2259;SDS011;333;48.800;9.530;2023-02-28T04:47:55;6.33;;;5.50;;
2259;SDS011;333;48.800;9.530;2023-02-28T04:50:22;9.03;;;5.93;;
2259;SDS011;333;48.800;9.530;2023-02-28T04:52:49;7.60;;;6.50;;
2259;SDS011;333;48.800;9.530;2023-02-28T04:55:17;5.37;;;4.90;;
2259;SDS011;333;48.800;9.530;2023-02-28T04:57:45;7.43;;;5.47;;
2259;SDS011;333;48.800;9.530;2023-02-28T05:00:13;8.00;;;5.90;;
2259;SDS011;333;48.800;9.530;2023-02-28T05:02:42;7.23;;;5.90;;
2259;SDS011;333;48.800;9.530;2023-02-28T05:05:09;6.17;;;5.57;;
2259;SDS011;333;48.800;9.530;2023-02-28T05:07:42;7.70;;;6.20;;
2259;SDS011;333;48.800;9.530;2023-02-28T05:10:10;6.43;;;5.30;;
2259;SDS011;333;48.800;9.530;2023-02-28T05:12:37;8.97;;;6.40;;
2259;SDS011;333;48.800;9.530;2023-02-28T05:15:07;6.37;;;5.77;;
2259;SDS011;333;48.800;9.530;2023-02-28T05:17:35;7.40;;;6.60;;
2259;SDS011;333;48.800;9.530;2023-02-28T05:20:02;6.47;;;5.87;;
2259;SDS011;333;48.800;9.530;2023-02-28T05:22:31;7.43;;;6.23;;
2259;SDS011;333;48.800;9.530;2023-02-28T05:24:58;7.57;;;6.33;;
2259;SDS011;333;48.800;9.530;2023-02-28T05:27:25;7.00;;;6.30;;
2259;SDS011;333;48.800;9.530;2023-02-28T05:29:53;10.60;;;6.63;;
2259;SDS011;333;48.800;9.530;2023-02-28T05:32:22;6.67;;;6.07;;
2259;SDS011;333;48.800;9.530;2023-02-28T05:34:49;8.37;;;6.50;;
2259;SDS011;333;48.800;9.530;2023-02-28T05:37:17;7.17;;;6.20;;
2259;SDS011;333;48.800;9.530;2023-02-28T05:39:44;9.83;;;6.53;;
2259;SDS011;333;48.800;9.530;2023-02-28T05:42:11;8.47;;;6.17;;
2259;SDS011;333;48.800;9.530;2023-02-28T05:44:38;6.77;;;6.10;;
2259;SDS011;333;48.800;9.530;2023-02-28T05:47:07;8.17;;;7.03;;
2259;SDS011;333;48.800;9.530;2023-02-28T05:49:35;10.10;;;6.97;;
2259;SDS011;333;48.800;9.530;2023-02-28T05:52:03;10.00;;;6.03;;
2259;SDS011;333;48.800;9.530;2023-02-28T05:54:30;9.60;;;6.90;;
2259;SDS011;333;48.800;9.530;2023-02-28T05:56:58;8.33;;;6.80;;
2259;SDS011;333;48.800;9.530;2023-02-28T05:59:25;8.17;;;6.90;;
2259;SDS011;333;48.800;9.530;2023-02-28T06:01:52;7.43;;;6.50;;
2259;SDS011;333;48.800;9.530;2023-02-28T06:04:20;8.37;;;7.47;;
2259;SDS011;333;48.800;9.530;2023-02-28T06:06:50;9.17;;;7.00;;
2259;SDS011;333;48.800;9.530;2023-02-28T06:09:17;7.43;;;6.73;;
2259;SDS011;333;48.800;9.530;2023-02-28T06:11:45;9.83;;;7.23;;
2259;SDS011;333;48.800;9.530;2023-02-28T06:14:14;8.50;;;7.20;;
2259;SDS011;333;48.800;9.530;2023-02-28T06:16:42;10.20;;;7.43;;
2259;SDS011;333;48.800;9.530;2023-02-28T06:19:09;10.27;;;6.33;;
2259;SDS011;333;48.800;9.530;2023-02-28T06:21:37;8.10;;;7.10;;
2259;SDS011;333;48.800;9.530;2023-02-28T06:24:07;8.90;;;7.50;;
2259;SDS011;333;48.800;9.530;2023-02-28T06:26:34;9.73;;;7.70;;
2259;SDS011;333;48.800;9.530;2023-02-28T06:29:01;10.23;;;6.83;;
2259;SDS011;333;48.800;9.530;2023-02-28T06:31:29;7.80;;;7.10;;
2259;SDS011;333;48.800;9.530;2023-02-28T06:33:57;9.10;;;8.00;;
2259;SDS011;333;48.800;9.530;2023-02-28T06:36:24;7.57;;;6.80;;
2259;SDS011;333;48.800;9.530;2023-02-28T06:38:51;12.73;;;7.50;;
2259;SDS011;333;48.800;9.530;2023-02-28T06:41:22;9.70;;;7.40;;
2259;SDS011;333;48.800;9.530;2023-02-28T06:43:51;11.43;;;7.63;;
2259;SDS011;333;48.800;9.530;2023-02-28T06:46:19;9.63;;;7.37;;
2259;SDS011;333;48.800;9.530;2023-02-28T06:48:47;8.13;;;7.33;;
2259;SDS011;333;48.800;9.530;2023-02-28T06:51:15;9.60;;;8.60;;
2259;SDS011;333;48.800;9.530;2023-02-28T06:53:42;10.57;;;8.53;;
2259;SDS011;333;48.800;9.530;2023-02-28T06:56:11;9.53;;;7.93;;
2259;SDS011;333;48.800;9.530;2023-02-28T06:58:40;9.93;;;8.43;;
2259;SDS011;333;48.800;9.530;2023-02-28T07:01:07;10.37;;;8.10;;
2259;SDS011;333;48.800;9.530;2023-02-28T07:03:35;14.73;;;8.70;;
2259;SDS011;333;48.800;9.530;2023-02-28T07:06:02;9.33;;;8.40;;
2259;SDS011;333;48.800;9.530;2023-02-28T07:08:31;11.63;;;7.93;;
2259;SDS011;333;48.800;9.530;2023-02-28T07:10:58;13.13;;;8.17;;
2259;SDS011;333;48.800;9.530;2023-02-28T07:13:26;11.50;;;8.57;;
2259;SDS011;333;48.800;9.530;2023-02-28T07:15:55;8.93;;;7.90;;
2259;SDS011;333;48.800;9.530;2023-02-28T07:18:23;11.07;;;8.30;;
2259;SDS011;333;48.800;9.530;2023-02-28T07:20:50;12.57;;;7.93;;
2259;SDS011;333;48.800;9.530;2023-02-28T07:23:17;9.63;;;7.70;;
2259;SDS011;333;48.800;9.530;2023-02-28T07:25:45;10.37;;;9.17;;
2259;SDS011;333;48.800;9.530;2023-02-28T07:28:13;9.70;;;7.80;;
2259;SDS011;333;48.800;9.530;2023-02-28T07:30:40;8.83;;;7.30;;
2259;SDS011;333;48.800;9.530;2023-02-28T07:33:09;9.30;;;7.20;;
2259;SDS011;333;48.800;9.530;2023-02-28T07:35:37;9.80;;;8.47;;
2259;SDS011;333;48.800;9.530;2023-02-28T07:38:04;12.37;;;8.73;;
2259;SDS011;333;48.800;9.530;2023-02-28T07:40:32;8.80;;;7.90;;
2259;SDS011;333;48.800;9.530;2023-02-28T07:43:00;11.47;;;8.20;;
2259;SDS011;333;48.800;9.530;2023-02-28T07:45:28;8.97;;;7.37;;
2259;SDS011;333;48.800;9.530;2023-02-28T07:47:56;10.50;;;8.47;;
2259;SDS011;333;48.800;9.530;2023-02-28T07:50:25;10.73;;;8.97;;
2259;SDS011;333;48.800;9.530;2023-02-28T07:52:56;9.80;;;7.60;;
2259;SDS011;333;48.800;9.530;2023-02-28T07:55:25;10.27;;;9.27;;
2259;SDS011;333;48.800;9.530;2023-02-28T07:57:53;9.00;;;7.17;;
2259;SDS011;333;48.800;9.530;2023-02-28T08:00:21;10.40;;;8.10;;
2259;SDS011;333;48.800;9.530;2023-02-28T08:02:48;9.97;;;8.40;;
2259;SDS011;333;48.800;9.530;2023-02-28T08:05:16;11.93;;;8.90;;
2259;SDS011;333;48.800;9.530;2023-02-28T08:07:48;8.93;;;7.60;;
2259;SDS011;333;48.800;9.530;2023-02-28T08:10:15;10.93;;;8.47;;
2259;SDS011;333;48.800;9.530;2023-02-28T08:12:42;10.90;;;8.70;;
2259;SDS011;333;48.800;9.530;2023-02-28T08:15:10;13.03;;;8.90;;
2259;SDS011;333;48.800;9.530;2023-02-28T08:17:37;9.97;;;8.40;;
2259;SDS011;333;48.800;9.530;2023-02-28T08:20:05;8.33;;;7.53;;
2259;SDS011;333;48.800;9.530;2023-02-28T08:22:35;9.77;;;8.03;;
2259;SDS011;333;48.800;9.530;2023-02-28T08:25:11;12.37;;;9.57;;
2259;SDS011;333;48.800;9.530;2023-02-28T08:27:39;10.57;;;8.23;;
2259;SDS011;333;48.800;9.530;2023-02-28T08:30:06;9.90;;;8.90;;
2259;SDS011;333;48.800;9.530;2023-02-28T08:32:35;8.50;;;7.70;;
2259;SDS011;333;48.800;9.530;2023-02-28T08:35:03;14.50;;;9.77;;
2259;SDS011;333;48.800;9.530;2023-02-28T08:37:30;9.60;;;7.57;;
2259;SDS011;333;48.800;9.530;2023-02-28T08:39:57;10.70;;;8.77;;
2259;SDS011;333;48.800;9.530;2023-02-28T08:42:26;9.93;;;8.93;;
2259;SDS011;333;48.800;9.530;2023-02-28T08:44:53;10.90;;;9.43;;
2259;SDS011;333;48.800;9.530;2023-02-28T08:47:21;12.90;;;9.70;;
2259;SDS011;333;48.800;9.530;2023-02-28T08:49:48;9.43;;;8.23;;
2259;SDS011;333;48.800;9.530;2023-02-28T08:52:15;9.87;;;8.30;;
2259;SDS011;333;48.800;9.530;2023-02-28T08:54:43;11.23;;;8.47;;
2259;SDS011;333;48.800;9.530;2023-02-28T08:57:10;10.17;;;8.60;;
2259;SDS011;333;48.800;9.530;2023-02-28T08:59:39;12.30;;;8.57;;
2259;SDS011;333;48.800;9.530;2023-02-28T09:02:07;10.80;;;8.80;;
2259;SDS011;333;48.800;9.530;2023-02-28T09:04:35;10.83;;;9.63;;
2259;SDS011;333;48.800;9.530;2023-02-28T09:07:04;10.97;;;8.63;;
2259;SDS011;333;48.800;9.530;2023-02-28T09:09:32;11.00;;;9.63;;
2259;SDS011;333;48.800;9.530;2023-02-28T09:11:59;12.40;;;10.03;;
2259;SDS011;333;48.800;9.530;2023-02-28T09:14:27;11.07;;;8.17;;
2259;SDS011;333;48.800;9.530;2023-02-28T09:16:56;10.33;;;9.30;;
2259;SDS011;333;48.800;9.530;2023-02-28T09:19:23;13.47;;;9.07;;
2259;SDS011;333;48.800;9.530;2023-02-28T09:21:50;10.20;;;9.20;;
2259;SDS011;333;48.800;9.530;2023-02-28T09:24:18;14.93;;;10.53;;
2259;SDS011;333;48.800;9.530;2023-02-28T09:26:45;9.47;;;8.57;;
2259;SDS011;333;48.800;9.530;2023-02-28T09:29:13;10.17;;;8.43;;
2259;SDS011;333;48.800;9.530;2023-02-28T09:31:41;12.63;;;8.87;;
2259;SDS011;333;48.800;9.530;2023-02-28T09:34:10;13.20;;;10.03;;
2259;SDS011;333;48.800;9.530;2023-02-28T09:36:37;15.67;;;9.20;;
2259;SDS011;333;48.800;9.530;2023-02-28T09:39:05;12.13;;;9.13;;
2259;SDS011;333;48.800;9.530;2023-02-28T09:41:36;11.00;;;8.60;;
2259;SDS011;333;48.800;9.530;2023-02-28T09:44:13;9.83;;;8.67;;
2259;SDS011;333;48.800;9.530;2023-02-28T09:46:43;10.80;;;9.20;;
2259;SDS011;333;48.800;9.530;2023-02-28T09:49:13;11.90;;;8.90;;
2259;SDS011;333;48.800;9.530;2023-02-28T09:51:44;11.37;;;9.47;;
2259;SDS011;333;48.800;9.530;2023-02-28T09:54:14;11.27;;;9.23;;
2259;SDS011;333;48.800;9.530;2023-02-28T09:56:44;10.77;;;8.90;;
2259;SDS011;333;48.800;9.530;2023-02-28T09:59:13;10.43;;;9.37;;
2259;SDS011;333;48.800;9.530;2023-02-28T10:01:47;10.67;;;9.17;;
2259;SDS011;333;48.800;9.530;2023-02-28T10:04:22;11.03;;;8.40;;
2259;SDS011;333;48.800;9.530;2023-02-28T10:06:55;9.50;;;8.60;;
2259;SDS011;333;48.800;9.530;2023-02-28T10:09:24;11.00;;;9.00;;
2259;SDS011;333;48.800;9.530;2023-02-28T10:11:52;10.47;;;8.37;;
2259;SDS011;333;48.800;9.530;2023-02-28T10:14:21;10.80;;;9.50;;
2259;SDS011;333;48.800;9.530;2023-02-28T10:16:50;12.87;;;9.40;;
2259;SDS011;333;48.800;9.530;2023-02-28T10:19:22;10.70;;;9.50;;
2259;SDS011;333;48.800;9.530;2023-02-28T10:21:53;11.23;;;9.73;;
2259;SDS011;333;48.800;9.530;2023-02-28T10:24:23;12.80;;;9.63;;
2259;SDS011;333;48.800;9.530;2023-02-28T10:26:55;10.17;;;9.13;;
2259;SDS011;333;48.800;9.530;2023-02-28T10:29:23;11.70;;;9.50;;
2259;SDS011;333;48.800;9.530;2023-02-28T10:31:51;14.60;;;10.70;;
2259;SDS011;333;48.800;9.530;2023-02-28T10:34:18;14.53;;;10.57;;
2259;SDS011;333;48.800;9.530;2023-02-28T10:36:47;10.33;;;9.23;;
2259;SDS011;333;48.800;9.530;2023-02-28T10:42:01;11.10;;;8.27;;
2259;SDS011;333;48.800;9.530;2023-02-28T10:44:28;11.10;;;9.03;;
2259;SDS011;333;48.800;9.530;2023-02-28T10:46:56;11.00;;;9.27;;
2259;SDS011;333;48.800;9.530;2023-02-28T10:49:23;9.90;;;8.90;;
2259;SDS011;333;48.800;9.530;2023-02-28T10:51:54;12.33;;;10.03;;
2259;SDS011;333;48.800;9.530;2023-02-28T10:54:22;10.07;;;9.03;;
2259;SDS011;333;48.800;9.530;2023-02-28T10:57:08;10.43;;;9.33;;
2259;SDS011;333;48.800;9.530;2023-02-28T10:59:35;11.00;;;8.93;;
2259;SDS011;333;48.800;9.530;2023-02-28T11:02:08;10.20;;;8.80;;
2259;SDS011;333;48.800;9.530;2023-02-28T11:04:53;10.30;;;8.87;;
2259;SDS011;333;48.800;9.530;2023-02-28T11:07:23;10.25;;;9.20;;
2259;SDS011;333;48.800;9.530;2023-02-28T11:09:50;11.80;;;10.03;;
2259;SDS011;333;48.800;9.530;2023-02-28T11:12:22;11.10;;;9.90;;
2259;SDS011;333;48.800;9.530;2023-02-28T11:14:50;11.07;;;9.93;;
2259;SDS011;333;48.800;9.530;2023-02-28T11:17:20;11.00;;;9.80;;
2259;SDS011;333;48.800;9.530;2023-02-28T11:19:49;12.93;;;10.67;;
2259;SDS011;333;48.800;9.530;2023-02-28T11:22:18;14.90;;;10.13;;
2259;SDS011;333;48.800;9.530;2023-02-28T11:24:48;15.80;;;11.50;;
2259;SDS011;333;48.800;9.530;2023-02-28T11:30:19;10.40;;;9.40;;
2259;SDS011;333;48.800;9.530;2023-02-28T11:32:50;11.60;;;9.53;;
2259;SDS011;333;48.800;9.530;2023-02-28T11:35:18;11.53;;;10.43;;
2259;SDS011;333;48.800;9.530;2023-02-28T11:37:48;11.30;;;9.90;;
2259;SDS011;333;48.800;9.530;2023-02-28T11:40:18;11.47;;;9.60;;
2259;SDS011;333;48.800;9.530;2023-02-28T11:42:48;10.40;;;9.40;;
2259;SDS011;333;48.800;9.530;2023-02-28T11:45:32;9.80;;;8.90;;
2259;SDS011;333;48.800;9.530;2023-02-28T11:48:04;11.50;;;9.63;;
2259;SDS011;333;48.800;9.530;2023-02-28T11:50:42;12.47;;;9.73;;
2259;SDS011;333;48.800;9.530;2023-02-28T11:53:14;13.77;;;11.40;;
2259;SDS011;333;48.800;9.530;2023-02-28T11:55:45;11.57;;;10.00;;
2259;SDS011;333;48.800;9.530;2023-02-28T11:58:18;11.93;;;9.43;;
2259;SDS011;333;48.800;9.530;2023-02-28T12:00:54;11.53;;;10.33;;
2259;SDS011;333;48.800;9.530;2023-02-28T12:03:27;11.43;;;9.53;;
2259;SDS011;333;48.800;9.530;2023-02-28T12:06:01;10.50;;;9.33;;
2259;SDS011;333;48.800;9.530;2023-02-28T12:08:37;11.57;;;9.67;;
2259;SDS011;333;48.800;9.530;2023-02-28T12:11:12;11.37;;;10.20;;
2259;SDS011;333;48.800;9.530;2023-02-28T12:13:45;11.23;;;9.90;;
2259;SDS011;333;48.800;9.530;2023-02-28T12:16:20;12.13;;;10.93;;
2259;SDS011;333;48.800;9.530;2023-02-28T12:18:58;10.47;;;9.03;;
2259;SDS011;333;48.800;9.530;2023-02-28T12:21:30;11.50;;;10.30;;
2259;SDS011;333;48.800;9.530;2023-02-28T12:24:01;10.30;;;9.30;;
2259;SDS011;333;48.800;9.530;2023-02-28T12:26:34;10.80;;;9.50;;
2259;SDS011;333;48.800;9.530;2023-02-28T12:29:04;9.13;;;8.23;;
2259;SDS011;333;48.800;9.530;2023-02-28T12:31:36;11.43;;;8.83;;
2259;SDS011;333;48.800;9.530;2023-02-28T12:34:05;11.13;;;9.53;;
2259;SDS011;333;48.800;9.530;2023-02-28T12:36:34;10.00;;;9.00;;
2259;SDS011;333;48.800;9.530;2023-02-28T12:39:04;10.57;;;8.83;;
2259;SDS011;333;48.800;9.530;2023-02-28T12:41:36;11.43;;;10.33;;
2259;SDS011;333;48.800;9.530;2023-02-28T12:44:05;11.43;;;8.37;;
2259;SDS011;333;48.800;9.530;2023-02-28T12:46:35;9.13;;;8.33;;
2259;SDS011;333;48.800;9.530;2023-02-28T12:49:05;10.27;;;9.20;;
2259;SDS011;333;48.800;9.530;2023-02-28T12:51:33;12.97;;;9.70;;
2259;SDS011;333;48.800;9.530;2023-02-28T12:54:04;12.00;;;9.10;;
2259;SDS011;333;48.800;9.530;2023-02-28T12:56:38;9.53;;;8.53;;
2259;SDS011;333;48.800;9.530;2023-02-28T12:59:10;9.57;;;8.67;;
2259;SDS011;333;48.800;9.530;2023-02-28T13:01:47;11.30;;;10.00;;
2259;SDS011;333;48.800;9.530;2023-02-28T13:07:10;12.70;;;9.23;;
2259;SDS011;333;48.800;9.530;2023-02-28T13:09:40;10.00;;;9.00;;
2259;SDS011;333;48.800;9.530;2023-02-28T13:12:13;9.73;;;8.77;;
2259;SDS011;333;48.800;9.530;2023-02-28T13:14:41;10.37;;;8.27;;
2259;SDS011;333;48.800;9.530;2023-02-28T13:17:12;8.63;;;7.60;;
2259;SDS011;333;48.800;9.530;2023-02-28T13:19:40;13.80;;;8.90;;
2259;SDS011;333;48.800;9.530;2023-02-28T13:22:15;10.13;;;9.10;;
2259;SDS011;333;48.800;9.530;2023-02-28T13:24:47;8.70;;;7.87;;
2259;SDS011;333;48.800;9.530;2023-02-28T13:30:01;12.13;;;9.83;;
2259;SDS011;333;48.800;9.530;2023-02-28T13:32:30;10.57;;;8.93;;
2259;SDS011;333;48.800;9.530;2023-02-28T13:35:12;10.30;;;9.20;;
2259;SDS011;333;48.800;9.530;2023-02-28T13:37:44;9.47;;;8.60;;
2259;SDS011;333;48.800;9.530;2023-02-28T13:40:31;11.67;;;8.53;;
2259;SDS011;333;48.800;9.530;2023-02-28T13:43:02;10.90;;;9.50;;
2259;SDS011;333;48.800;9.530;2023-02-28T13:45:31;10.93;;;8.40;;
2259;SDS011;333;48.800;9.530;2023-02-28T13:48:17;10.27;;;9.17;;
2259;SDS011;333;48.800;9.530;2023-02-28T13:50:44;9.43;;;8.50;;
2259;SDS011;333;48.800;9.530;2023-02-28T13:53:28;10.17;;;8.50;;
2259;SDS011;333;48.800;9.530;2023-02-28T13:55:59;10.70;;;9.60;;
2259;SDS011;333;48.800;9.530;2023-02-28T13:58:46;10.50;;;8.50;;
2259;SDS011;333;48.800;9.530;2023-02-28T14:01:25;10.73;;;9.47;;
2259;SDS011;333;48.800;9.530;2023-02-28T14:03:58;9.60;;;8.63;;
2259;SDS011;333;48.800;9.530;2023-02-28T14:06:30;9.90;;;9.00;;
2259;SDS011;333;48.800;9.530;2023-02-28T14:08:59;8.33;;;7.50;;
2259;SDS011;333;48.800;9.530;2023-02-28T14:11:30;12.80;;;9.27;;
2259;SDS011;333;48.800;9.530;2023-02-28T14:13:58;9.23;;;8.27;;
2259;SDS011;333;48.800;9.530;2023-02-28T14:16:25;9.97;;;8.70;;
2259;SDS011;333;48.800;9.530;2023-02-28T14:18:56;10.40;;;9.40;;
2259;SDS011;333;48.800;9.530;2023-02-28T14:21:25;10.50;;;9.50;;
2259;SDS011;333;48.800;9.530;2023-02-28T14:26:55;11.67;;;9.90;;
2259;SDS011;333;48.800;9.530;2023-02-28T14:29:29;9.80;;;8.90;;
2259;SDS011;333;48.800;9.530;2023-02-28T14:31:58;10.33;;;9.30;;
2259;SDS011;333;48.800;9.530;2023-02-28T14:34:32;9.83;;;8.83;;
2259;SDS011;333;48.800;9.530;2023-02-28T14:37:03;11.50;;;9.03;;
2259;SDS011;333;48.800;9.530;2023-02-28T14:39:30;9.60;;;8.60;;
2259;SDS011;333;48.800;9.530;2023-02-28T14:41:58;9.63;;;8.50;;
2259;SDS011;333;48.800;9.530;2023-02-28T14:44:29;10.97;;;8.97;;
2259;SDS011;333;48.800;9.530;2023-02-28T14:46:57;10.07;;;9.00;;
2259;SDS011;333;48.800;9.530;2023-02-28T14:49:28;11.67;;;9.40;;
2259;SDS011;333;48.800;9.530;2023-02-28T14:52:05;11.23;;;9.83;;
2259;SDS011;333;48.800;9.530;2023-02-28T14:54:34;11.67;;;10.40;;
2259;SDS011;333;48.800;9.530;2023-02-28T14:57:02;9.90;;;8.90;;
2259;SDS011;333;48.800;9.530;2023-02-28T14:59:30;11.90;;;10.80;;
2259;SDS011;333;48.800;9.530;2023-02-28T15:02:17;9.33;;;8.43;;
2259;SDS011;333;48.800;9.530;2023-02-28T15:04:51;11.43;;;9.87;;
2259;SDS011;333;48.800;9.530;2023-02-28T15:07:20;10.23;;;9.07;;
2259;SDS011;333;48.800;9.530;2023-02-28T15:10:06;8.53;;;7.70;;
2259;SDS011;333;48.800;9.530;2023-02-28T15:12:34;11.07;;;9.90;;
2259;SDS011;333;48.800;9.530;2023-02-28T15:15:01;10.13;;;9.07;;
2259;SDS011;333;48.800;9.530;2023-02-28T15:17:28;10.50;;;9.50;;
2259;SDS011;333;48.800;9.530;2023-02-28T15:19:56;10.10;;;8.83;;
2259;SDS011;333;48.800;9.530;2023-02-28T15:22:26;9.87;;;8.83;;
2259;SDS011;333;48.800;9.530;2023-02-28T15:24:55;10.83;;;9.73;;
2259;SDS011;333;48.800;9.530;2023-02-28T15:27:24;13.73;;;10.33;;
2259;SDS011;333;48.800;9.530;2023-02-28T15:29:53;10.60;;;9.57;;
2259;SDS011;333;48.800;9.530;2023-02-28T15:32:24;12.20;;;9.80;;
2259;SDS011;333;48.800;9.530;2023-02-28T15:34:51;11.13;;;10.07;;
2259;SDS011;333;48.800;9.530;2023-02-28T15:37:28;10.73;;;9.63;;
2259;SDS011;333;48.800;9.530;2023-02-28T15:39:56;11.20;;;10.07;;
2259;SDS011;333;48.800;9.530;2023-02-28T15:42:27;9.87;;;8.87;;
2259;SDS011;333;48.800;9.530;2023-02-28T15:44:54;11.03;;;8.90;;
2259;SDS011;333;48.800;9.530;2023-02-28T15:47:22;11.67;;;10.47;;
2259;SDS011;333;48.800;9.530;2023-02-28T15:49:50;11.40;;;9.83;;
2259;SDS011;333;48.800;9.530;2023-02-28T15:52:18;12.13;;;9.77;;
2259;SDS011;333;48.800;9.530;2023-02-28T15:54:47;10.80;;;9.67;;